sensor_id;sensor_type;location;lat;lon;timestamp;temperature;humidity
35258;DHT22;21385;50.878;8.050;2023-11-19T00:00:35;9.10;99.90
35258;DHT22;21385;50.878;8.050;2023-11-19T00:03:01;9.20;99.90
35258;DHT22;21385;50.878;8.050;2023-11-19T00:05:27;9.30;99.90
35258;DHT22;21385;50.878;8.050;2023-11-19T00:07:53;9.30;99.90
35258;DHT22;21385;50.878;8.050;2023-11-19T00:10:19;9.30;99.90
35258;DHT22;21385;50.878;8.050;2023-11-19T00:12:46;9.20;99.90
35258;DHT22;21385;50.878;8.050;2023-11-19T00:15:13;9.20;99.90
35258;DHT22;21385;50.878;8.050;2023-11-19T00:17:42;9.30;99.90
35258;DHT22;21385;50.878;8.050;2023-11-19T00:20:19;9.30;99.90
35258;DHT22;21385;50.878;8.050;2023-11-19T00:22:47;9.30;99.90
35258;DHT22;21385;50.878;8.050;2023-11-19T00:25:16;9.30;99.90
35258;DHT22;21385;50.878;8.050;2023-11-19T00:27:42;9.40;99.90
35258;DHT22;21385;50.878;8.050;2023-11-19T00:30:10;9.40;99.90
35258;DHT22;21385;50.878;8.050;2023-11-19T00:32:36;9.50;99.90
35258;DHT22;21385;50.878;8.050;2023-11-19T00:35:04;9.50;99.90
35258;DHT22;21385;50.878;8.050;2023-11-19T00:37:29;9.60;99.90
35258;DHT22;21385;50.878;8.050;2023-11-19T00:39:55;9.70;99.90
35258;DHT22;21385;50.878;8.050;2023-11-19T00:42:22;9.70;99.90
35258;DHT22;21385;50.878;8.050;2023-11-19T00:44:49;9.80;99.90
35258;DHT22;21385;50.878;8.050;2023-11-19T00:47:15;9.80;99.90
35258;DHT22;21385;50.878;8.050;2023-11-19T00:49:41;9.90;99.90
35258;DHT22;21385;50.878;8.050;2023-11-19T00:52:06;9.90;99.90
35258;DHT22;21385;50.878;8.050;2023-11-19T00:54:32;9.90;99.90
35258;DHT22;21385;50.878;8.050;2023-11-19T00:56:58;10.00;99.90
35258;DHT22;21385;50.878;8.050;2023-11-19T00:59:23;10.00;99.90
35258;DHT22;21385;50.878;8.050;2023-11-19T01:01:49;10.00;99.90
35258;DHT22;21385;50.878;8.050;2023-11-19T01:04:16;10.00;99.90
35258;DHT22;21385;50.878;8.050;2023-11-19T01:06:42;10.00;99.90
35258;DHT22;21385;50.878;8.050;2023-11-19T01:09:08;10.00;99.90
35258;DHT22;21385;50.878;8.050;2023-11-19T01:11:34;10.00;99.90
35258;DHT22;21385;50.878;8.050;2023-11-19T01:14:00;10.00;99.90
35258;DHT22;21385;50.878;8.050;2023-11-19T01:16:26;10.00;99.90
35258;DHT22;21385;50.878;8.050;2023-11-19T01:18:51;10.10;99.90
35258;DHT22;21385;50.878;8.050;2023-11-19T01:21:18;10.10;99.90
35258;DHT22;21385;50.878;8.050;2023-11-19T01:23:43;10.20;99.90
35258;DHT22;21385;50.878;8.050;2023-11-19T01:26:10;10.20;99.90
35258;DHT22;21385;50.878;8.050;2023-11-19T01:28:36;10.30;99.90
35258;DHT22;21385;50.878;8.050;2023-11-19T01:31:02;10.30;99.90
35258;DHT22;21385;50.878;8.050;2023-11-19T01:33:28;10.30;99.90
35258;DHT22;21385;50.878;8.050;2023-11-19T01:35:55;10.30;99.90
35258;DHT22;21385;50.878;8.050;2023-11-19T01:38:21;10.30;99.90
35258;DHT22;21385;50.878;8.050;2023-11-19T01:40:46;10.40;99.90
35258;DHT22;21385;50.878;8.050;2023-11-19T01:43:12;10.50;99.90
35258;DHT22;21385;50.878;8.050;2023-11-19T01:45:55;10.50;99.90
35258;DHT22;21385;50.878;8.050;2023-11-19T01:48:22;10.60;99.90
35258;DHT22;21385;50.878;8.050;2023-11-19T01:50:48;10.70;99.90
35258;DHT22;21385;50.878;8.050;2023-11-19T01:55:39;10.80;99.90
35258;DHT22;21385;50.878;8.050;2023-11-19T01:58:07;10.80;99.90
35258;DHT22;21385;50.878;8.050;2023-11-19T02:00:32;10.90;99.90
35258;DHT22;21385;50.878;8.050;2023-11-19T02:02:59;10.90;99.90
35258;DHT22;21385;50.878;8.050;2023-11-19T02:05:24;10.90;99.90
35258;DHT22;21385;50.878;8.050;2023-11-19T02:07:50;10.90;99.90
35258;DHT22;21385;50.878;8.050;2023-11-19T02:10:17;11.00;99.90
35258;DHT22;21385;50.878;8.050;2023-11-19T02:12:44;11.00;99.90
35258;DHT22;21385;50.878;8.050;2023-11-19T02:15:11;11.00;99.90
35258;DHT22;21385;50.878;8.050;2023-11-19T02:17:37;11.10;99.90
35258;DHT22;21385;50.878;8.050;2023-11-19T02:20:04;11.10;99.90
35258;DHT22;21385;50.878;8.050;2023-11-19T02:22:40;11.10;99.90
35258;DHT22;21385;50.878;8.050;2023-11-19T02:25:23;11.10;99.90
35258;DHT22;21385;50.878;8.050;2023-11-19T02:27:54;11.10;99.90
35258;DHT22;21385;50.878;8.050;2023-11-19T02:30:21;11.10;99.90
35258;DHT22;21385;50.878;8.050;2023-11-19T02:32:53;11.10;99.90
35258;DHT22;21385;50.878;8.050;2023-11-19T02:35:19;11.20;99.90
35258;DHT22;21385;50.878;8.050;2023-11-19T02:37:47;11.30;99.90
35258;DHT22;21385;50.878;8.050;2023-11-19T02:40:13;11.20;99.90
35258;DHT22;21385;50.878;8.050;2023-11-19T02:42:38;11.20;99.90
35258;DHT22;21385;50.878;8.050;2023-11-19T02:45:04;11.20;99.90
35258;DHT22;21385;50.878;8.050;2023-11-19T02:47:33;11.10;99.90
35258;DHT22;21385;50.878;8.050;2023-11-19T02:49:59;11.10;99.90
35258;DHT22;21385;50.878;8.050;2023-11-19T02:52:25;11.10;99.90
35258;DHT22;21385;50.878;8.050;2023-11-19T02:54:51;11.10;99.90
35258;DHT22;21385;50.878;8.050;2023-11-19T02:57:18;11.20;99.90
35258;DHT22;21385;50.878;8.050;2023-11-19T02:59:46;11.20;99.90
35258;DHT22;21385;50.878;8.050;2023-11-19T03:02:12;11.20;99.90
35258;DHT22;21385;50.878;8.050;2023-11-19T03:04:38;11.20;99.90
35258;DHT22;21385;50.878;8.050;2023-11-19T03:07:08;11.30;99.90
35258;DHT22;21385;50.878;8.050;2023-11-19T03:09:33;11.30;99.90
35258;DHT22;21385;50.878;8.050;2023-11-19T03:12:01;11.30;99.90
35258;DHT22;21385;50.878;8.050;2023-11-19T03:14:26;11.30;99.90
35258;DHT22;21385;50.878;8.050;2023-11-19T03:16:53;11.30;99.90
35258;DHT22;21385;50.878;8.050;2023-11-19T03:19:18;11.40;99.90
35258;DHT22;21385;50.878;8.050;2023-11-19T03:21:44;11.30;99.90
35258;DHT22;21385;50.878;8.050;2023-11-19T03:24:10;11.40;99.90
35258;DHT22;21385;50.878;8.050;2023-11-19T03:26:35;11.40;99.90
35258;DHT22;21385;50.878;8.050;2023-11-19T03:29:02;11.50;99.90
35258;DHT22;21385;50.878;8.050;2023-11-19T03:31:28;11.50;99.90
35258;DHT22;21385;50.878;8.050;2023-11-19T03:33:54;11.50;99.90
35258;DHT22;21385;50.878;8.050;2023-11-19T03:36:19;11.50;99.90
35258;DHT22;21385;50.878;8.050;2023-11-19T03:38:45;11.50;99.90
35258;DHT22;21385;50.878;8.050;2023-11-19T03:41:14;11.50;99.90
35258;DHT22;21385;50.878;8.050;2023-11-19T03:43:40;11.50;99.90
35258;DHT22;21385;50.878;8.050;2023-11-19T03:46:19;11.50;99.90
35258;DHT22;21385;50.878;8.050;2023-11-19T03:48:46;11.50;99.90
35258;DHT22;21385;50.878;8.050;2023-11-19T03:51:12;11.50;99.90
35258;DHT22;21385;50.878;8.050;2023-11-19T03:53:49;11.60;99.90
35258;DHT22;21385;50.878;8.050;2023-11-19T03:56:15;11.60;99.90
35258;DHT22;21385;50.878;8.050;2023-11-19T03:58:41;11.50;99.90
35258;DHT22;21385;50.878;8.050;2023-11-19T04:01:11;11.50;99.90
35258;DHT22;21385;50.878;8.050;2023-11-19T04:03:37;11.50;99.90
35258;DHT22;21385;50.878;8.050;2023-11-19T04:06:03;11.50;99.90
35258;DHT22;21385;50.878;8.050;2023-11-19T04:08:30;11.50;99.90
35258;DHT22;21385;50.878;8.050;2023-11-19T04:10:55;11.50;99.90
35258;DHT22;21385;50.878;8.050;2023-11-19T04:13:21;11.50;99.90
35258;DHT22;21385;50.878;8.050;2023-11-19T04:15:49;11.60;99.90
35258;DHT22;21385;50.878;8.050;2023-11-19T04:18:14;11.60;99.90
35258;DHT22;21385;50.878;8.050;2023-11-19T04:20:40;11.60;99.90
35258;DHT22;21385;50.878;8.050;2023-11-19T04:23:07;11.70;99.90
35258;DHT22;21385;50.878;8.050;2023-11-19T04:25:33;11.70;99.90
35258;DHT22;21385;50.878;8.050;2023-11-19T04:28:00;11.60;99.90
35258;DHT22;21385;50.878;8.050;2023-11-19T04:30:25;11.70;99.90
35258;DHT22;21385;50.878;8.050;2023-11-19T04:32:51;11.70;99.90
35258;DHT22;21385;50.878;8.050;2023-11-19T04:35:16;11.60;99.90
35258;DHT22;21385;50.878;8.050;2023-11-19T04:37:42;11.60;99.90
35258;DHT22;21385;50.878;8.050;2023-11-19T04:40:08;11.60;99.90
35258;DHT22;21385;50.878;8.050;2023-11-19T04:42:35;11.60;99.90
35258;DHT22;21385;50.878;8.050;2023-11-19T04:45:00;11.70;99.90
35258;DHT22;21385;50.878;8.050;2023-11-19T04:47:26;11.60;99.90
35258;DHT22;21385;50.878;8.050;2023-11-19T04:49:51;11.60;99.90
35258;DHT22;21385;50.878;8.050;2023-11-19T04:52:17;11.70;99.90
35258;DHT22;21385;50.878;8.050;2023-11-19T04:54:43;11.70;99.90
35258;DHT22;21385;50.878;8.050;2023-11-19T04:57:09;11.80;99.90
35258;DHT22;21385;50.878;8.050;2023-11-19T04:59:38;11.70;99.90
35258;DHT22;21385;50.878;8.050;2023-11-19T05:02:04;11.70;99.90
35258;DHT22;21385;50.878;8.050;2023-11-19T05:04:31;11.70;99.90
35258;DHT22;21385;50.878;8.050;2023-11-19T05:06:56;11.70;99.90
35258;DHT22;21385;50.878;8.050;2023-11-19T05:09:22;11.60;99.90
35258;DHT22;21385;50.878;8.050;2023-11-19T05:11:47;11.60;99.90
35258;DHT22;21385;50.878;8.050;2023-11-19T05:14:13;11.60;99.90
35258;DHT22;21385;50.878;8.050;2023-11-19T05:16:40;11.60;99.90
35258;DHT22;21385;50.878;8.050;2023-11-19T05:19:06;11.60;99.90
35258;DHT22;21385;50.878;8.050;2023-11-19T05:21:32;11.60;99.90
35258;DHT22;21385;50.878;8.050;2023-11-19T05:23:58;11.60;99.90
35258;DHT22;21385;50.878;8.050;2023-11-19T05:26:24;11.60;99.90
35258;DHT22;21385;50.878;8.050;2023-11-19T05:28:50;11.60;99.90
35258;DHT22;21385;50.878;8.050;2023-11-19T05:31:17;11.60;99.90
35258;DHT22;21385;50.878;8.050;2023-11-19T05:33:43;11.70;99.90
35258;DHT22;21385;50.878;8.050;2023-11-19T05:36:11;11.70;99.90
35258;DHT22;21385;50.878;8.050;2023-11-19T05:38:38;11.70;99.90
35258;DHT22;21385;50.878;8.050;2023-11-19T05:41:04;11.70;99.90
35258;DHT22;21385;50.878;8.050;2023-11-19T05:43:30;11.70;99.90
35258;DHT22;21385;50.878;8.050;2023-11-19T05:45:56;11.70;99.90
35258;DHT22;21385;50.878;8.050;2023-11-19T05:48:22;11.60;99.90
35258;DHT22;21385;50.878;8.050;2023-11-19T05:50:48;11.60;99.90
35258;DHT22;21385;50.878;8.050;2023-11-19T05:53:15;11.60;99.90
35258;DHT22;21385;50.878;8.050;2023-11-19T05:55:41;11.60;99.90
35258;DHT22;21385;50.878;8.050;2023-11-19T05:58:22;11.50;99.90
35258;DHT22;21385;50.878;8.050;2023-11-19T06:00:48;11.50;99.90
35258;DHT22;21385;50.878;8.050;2023-11-19T06:03:16;11.50;99.90
35258;DHT22;21385;50.878;8.050;2023-11-19T06:05:44;11.50;99.90
35258;DHT22;21385;50.878;8.050;2023-11-19T06:08:10;11.50;99.90
35258;DHT22;21385;50.878;8.050;2023-11-19T06:10:41;11.60;99.90
35258;DHT22;21385;50.878;8.050;2023-11-19T06:13:07;11.60;99.90
35258;DHT22;21385;50.878;8.050;2023-11-19T06:15:35;11.70;99.90
35258;DHT22;21385;50.878;8.050;2023-11-19T06:18:01;11.60;99.90
35258;DHT22;21385;50.878;8.050;2023-11-19T06:20:29;11.70;99.90
35258;DHT22;21385;50.878;8.050;2023-11-19T06:22:56;11.70;99.90
35258;DHT22;21385;50.878;8.050;2023-11-19T06:25:22;11.70;99.90
35258;DHT22;21385;50.878;8.050;2023-11-19T06:27:49;11.70;99.90
35258;DHT22;21385;50.878;8.050;2023-11-19T06:30:15;11.70;99.90
35258;DHT22;21385;50.878;8.050;2023-11-19T06:32:41;11.70;99.90
35258;DHT22;21385;50.878;8.050;2023-11-19T06:35:08;11.70;99.90
35258;DHT22;21385;50.878;8.050;2023-11-19T06:37:35;11.70;99.90
35258;DHT22;21385;50.878;8.050;2023-11-19T06:40:01;11.70;99.90
35258;DHT22;21385;50.878;8.050;2023-11-19T06:42:26;11.70;99.90
35258;DHT22;21385;50.878;8.050;2023-11-19T06:44:52;11.70;99.90
35258;DHT22;21385;50.878;8.050;2023-11-19T06:47:18;11.60;99.90
35258;DHT22;21385;50.878;8.050;2023-11-19T06:49:44;11.60;99.90
35258;DHT22;21385;50.878;8.050;2023-11-19T06:52:10;11.60;99.90
35258;DHT22;21385;50.878;8.050;2023-11-19T06:54:35;11.60;99.90
35258;DHT22;21385;50.878;8.050;2023-11-19T06:57:01;11.60;99.90
35258;DHT22;21385;50.878;8.050;2023-11-19T06:59:28;11.60;99.90
35258;DHT22;21385;50.878;8.050;2023-11-19T07:01:55;11.60;99.90
35258;DHT22;21385;50.878;8.050;2023-11-19T07:04:21;11.60;99.90
35258;DHT22;21385;50.878;8.050;2023-11-19T07:06:47;11.60;99.90
35258;DHT22;21385;50.878;8.050;2023-11-19T07:09:13;11.60;99.90
35258;DHT22;21385;50.878;8.050;2023-11-19T07:11:40;11.70;99.90
35258;DHT22;21385;50.878;8.050;2023-11-19T07:14:09;11.60;99.90
35258;DHT22;21385;50.878;8.050;2023-11-19T07:16:35;11.60;99.90
35258;DHT22;21385;50.878;8.050;2023-11-19T07:19:03;11.60;99.90
35258;DHT22;21385;50.878;8.050;2023-11-19T07:21:28;11.60;99.90
35258;DHT22;21385;50.878;8.050;2023-11-19T07:23:57;11.60;99.90
35258;DHT22;21385;50.878;8.050;2023-11-19T07:26:23;11.60;99.90
35258;DHT22;21385;50.878;8.050;2023-11-19T07:28:49;11.60;99.90
35258;DHT22;21385;50.878;8.050;2023-11-19T07:31:15;11.70;99.90
35258;DHT22;21385;50.878;8.050;2023-11-19T07:33:41;11.70;99.90
35258;DHT22;21385;50.878;8.050;2023-11-19T07:36:10;11.60;99.90
35258;DHT22;21385;50.878;8.050;2023-11-19T07:38:36;11.70;99.90
35258;DHT22;21385;50.878;8.050;2023-11-19T07:41:02;11.60;99.90
35258;DHT22;21385;50.878;8.050;2023-11-19T07:43:27;11.60;99.90
35258;DHT22;21385;50.878;8.050;2023-11-19T07:45:53;11.60;99.90
35258;DHT22;21385;50.878;8.050;2023-11-19T07:48:18;11.60;99.90
35258;DHT22;21385;50.878;8.050;2023-11-19T07:50:49;11.50;99.90
35258;DHT22;21385;50.878;8.050;2023-11-19T07:53:18;11.50;99.90
35258;DHT22;21385;50.878;8.050;2023-11-19T07:55:43;11.50;99.90
35258;DHT22;21385;50.878;8.050;2023-11-19T07:58:10;11.50;99.90
35258;DHT22;21385;50.878;8.050;2023-11-19T08:00:36;11.50;99.90
35258;DHT22;21385;50.878;8.050;2023-11-19T08:03:03;11.50;99.90
35258;DHT22;21385;50.878;8.050;2023-11-19T08:05:28;11.60;99.90
35258;DHT22;21385;50.878;8.050;2023-11-19T08:07:54;11.60;99.90
35258;DHT22;21385;50.878;8.050;2023-11-19T08:10:20;11.60;99.90
35258;DHT22;21385;50.878;8.050;2023-11-19T08:12:45;11.70;99.90
35258;DHT22;21385;50.878;8.050;2023-11-19T08:15:11;11.70;99.90
35258;DHT22;21385;50.878;8.050;2023-11-19T08:17:37;11.80;99.90
35258;DHT22;21385;50.878;8.050;2023-11-19T08:20:03;11.80;99.90
35258;DHT22;21385;50.878;8.050;2023-11-19T08:22:30;11.70;99.90
35258;DHT22;21385;50.878;8.050;2023-11-19T08:24:56;11.70;99.90
35258;DHT22;21385;50.878;8.050;2023-11-19T08:27:22;11.60;99.90
35258;DHT22;21385;50.878;8.050;2023-11-19T08:29:53;11.60;99.90
35258;DHT22;21385;50.878;8.050;2023-11-19T08:32:21;11.60;99.90
35258;DHT22;21385;50.878;8.050;2023-11-19T08:34:46;11.60;99.90
35258;DHT22;21385;50.878;8.050;2023-11-19T08:37:12;11.60;99.90
35258;DHT22;21385;50.878;8.050;2023-11-19T08:39:38;11.60;99.90
35258;DHT22;21385;50.878;8.050;2023-11-19T08:42:04;11.60;99.90
35258;DHT22;21385;50.878;8.050;2023-11-19T08:44:29;11.60;99.90
35258;DHT22;21385;50.878;8.050;2023-11-19T08:46:55;11.70;99.90
35258;DHT22;21385;50.878;8.050;2023-11-19T08:49:21;11.70;99.90
35258;DHT22;21385;50.878;8.050;2023-11-19T08:51:46;11.80;99.90
35258;DHT22;21385;50.878;8.050;2023-11-19T08:54:12;11.70;99.90
35258;DHT22;21385;50.878;8.050;2023-11-19T08:56:38;11.80;99.90
35258;DHT22;21385;50.878;8.050;2023-11-19T08:59:05;11.80;99.90
35258;DHT22;21385;50.878;8.050;2023-11-19T09:01:30;11.80;99.90
35258;DHT22;21385;50.878;8.050;2023-11-19T09:03:56;11.70;99.90
35258;DHT22;21385;50.878;8.050;2023-11-19T09:06:22;11.70;99.90
35258;DHT22;21385;50.878;8.050;2023-11-19T09:08:48;11.70;99.90
35258;DHT22;21385;50.878;8.050;2023-11-19T09:11:14;11.70;99.90
35258;DHT22;21385;50.878;8.050;2023-11-19T09:13:39;11.70;99.90
35258;DHT22;21385;50.878;8.050;2023-11-19T09:16:05;11.60;99.90
35258;DHT22;21385;50.878;8.050;2023-11-19T09:18:31;11.60;99.90
35258;DHT22;21385;50.878;8.050;2023-11-19T09:20:58;11.70;99.90
35258;DHT22;21385;50.878;8.050;2023-11-19T09:23:23;11.70;99.90
35258;DHT22;21385;50.878;8.050;2023-11-19T09:25:54;11.70;99.90
35258;DHT22;21385;50.878;8.050;2023-11-19T09:28:20;11.80;99.90
35258;DHT22;21385;50.878;8.050;2023-11-19T09:30:45;11.90;99.90
35258;DHT22;21385;50.878;8.050;2023-11-19T09:33:11;11.90;99.90
35258;DHT22;21385;50.878;8.050;2023-11-19T09:35:36;12.00;99.90
35258;DHT22;21385;50.878;8.050;2023-11-19T09:38:02;12.00;99.90
35258;DHT22;21385;50.878;8.050;2023-11-19T09:40:28;12.10;99.90
35258;DHT22;21385;50.878;8.050;2023-11-19T09:42:54;12.20;99.90
35258;DHT22;21385;50.878;8.050;2023-11-19T09:45:21;12.30;99.90
35258;DHT22;21385;50.878;8.050;2023-11-19T09:47:47;12.40;99.90
35258;DHT22;21385;50.878;8.050;2023-11-19T09:50:17;12.40;99.90
35258;DHT22;21385;50.878;8.050;2023-11-19T09:52:48;12.40;99.90
35258;DHT22;21385;50.878;8.050;2023-11-19T09:55:14;12.30;99.90
35258;DHT22;21385;50.878;8.050;2023-11-19T09:57:40;12.30;99.90
35258;DHT22;21385;50.878;8.050;2023-11-19T10:00:08;12.30;99.90
35258;DHT22;21385;50.878;8.050;2023-11-19T10:02:36;12.30;99.90
35258;DHT22;21385;50.878;8.050;2023-11-19T10:05:06;12.40;99.90
35258;DHT22;21385;50.878;8.050;2023-11-19T10:07:32;12.30;99.90
35258;DHT22;21385;50.878;8.050;2023-11-19T10:10:00;12.50;99.90
35258;DHT22;21385;50.878;8.050;2023-11-19T10:12:27;12.60;99.90
35258;DHT22;21385;50.878;8.050;2023-11-19T10:14:55;12.60;99.90
35258;DHT22;21385;50.878;8.050;2023-11-19T10:17:21;12.70;99.90
35258;DHT22;21385;50.878;8.050;2023-11-19T10:19:47;12.80;99.90
35258;DHT22;21385;50.878;8.050;2023-11-19T10:22:12;12.80;99.90
35258;DHT22;21385;50.878;8.050;2023-11-19T10:24:41;12.80;99.90
35258;DHT22;21385;50.878;8.050;2023-11-19T10:27:07;12.60;99.90
35258;DHT22;21385;50.878;8.050;2023-11-19T10:29:36;12.60;99.90
35258;DHT22;21385;50.878;8.050;2023-11-19T10:32:03;12.50;99.90
35258;DHT22;21385;50.878;8.050;2023-11-19T10:34:29;12.60;99.90
35258;DHT22;21385;50.878;8.050;2023-11-19T10:36:55;12.60;99.90
35258;DHT22;21385;50.878;8.050;2023-11-19T10:39:21;12.60;99.90
35258;DHT22;21385;50.878;8.050;2023-11-19T10:41:48;12.70;99.90
35258;DHT22;21385;50.878;8.050;2023-11-19T10:44:34;12.80;99.90
35258;DHT22;21385;50.878;8.050;2023-11-19T10:47:01;13.00;99.90
35258;DHT22;21385;50.878;8.050;2023-11-19T10:49:27;13.00;99.90
35258;DHT22;21385;50.878;8.050;2023-11-19T10:51:53;13.10;99.90
35258;DHT22;21385;50.878;8.050;2023-11-19T10:54:22;13.20;99.90
35258;DHT22;21385;50.878;8.050;2023-11-19T10:56:54;13.10;99.90
35258;DHT22;21385;50.878;8.050;2023-11-19T10:59:21;13.00;99.90
35258;DHT22;21385;50.878;8.050;2023-11-19T11:01:48;13.00;99.90
35258;DHT22;21385;50.878;8.050;2023-11-19T11:04:22;13.00;99.90
35258;DHT22;21385;50.878;8.050;2023-11-19T11:06:48;12.90;99.90
35258;DHT22;21385;50.878;8.050;2023-11-19T11:09:14;12.70;99.90
35258;DHT22;21385;50.878;8.050;2023-11-19T11:11:40;12.70;99.90
35258;DHT22;21385;50.878;8.050;2023-11-19T11:14:11;12.70;99.90
35258;DHT22;21385;50.878;8.050;2023-11-19T11:16:37;12.70;99.90
35258;DHT22;21385;50.878;8.050;2023-11-19T11:19:05;12.80;99.90
35258;DHT22;21385;50.878;8.050;2023-11-19T11:21:31;12.80;99.90
35258;DHT22;21385;50.878;8.050;2023-11-19T11:37:46;13.30;99.90
35258;DHT22;21385;50.878;8.050;2023-11-19T11:40:17;13.20;99.90
35258;DHT22;21385;50.878;8.050;2023-11-19T11:42:46;13.20;99.90
35258;DHT22;21385;50.878;8.050;2023-11-19T11:45:13;13.10;99.90
35258;DHT22;21385;50.878;8.050;2023-11-19T11:50:18;13.10;99.90
35258;DHT22;21385;50.878;8.050;2023-11-19T11:53:13;13.20;99.90
35258;DHT22;21385;50.878;8.050;2023-11-19T11:58:17;13.00;99.90
35258;DHT22;21385;50.878;8.050;2023-11-19T12:00:42;12.90;99.90
35258;DHT22;21385;50.878;8.050;2023-11-19T12:03:08;12.90;99.90
35258;DHT22;21385;50.878;8.050;2023-11-19T12:05:47;13.00;99.90
35258;DHT22;21385;50.878;8.050;2023-11-19T12:08:14;13.00;99.90
35258;DHT22;21385;50.878;8.050;2023-11-19T12:10:47;12.90;99.90
35258;DHT22;21385;50.878;8.050;2023-11-19T12:13:14;12.90;99.90
35258;DHT22;21385;50.878;8.050;2023-11-19T12:18:23;13.10;99.90
35258;DHT22;21385;50.878;8.050;2023-11-19T12:20:48;13.10;99.90
35258;DHT22;21385;50.878;8.050;2023-11-19T12:23:15;13.20;99.90
35258;DHT22;21385;50.878;8.050;2023-11-19T12:25:41;13.20;99.90
35258;DHT22;21385;50.878;8.050;2023-11-19T12:28:11;13.30;99.90
35258;DHT22;21385;50.878;8.050;2023-11-19T12:30:38;13.30;99.90
35258;DHT22;21385;50.878;8.050;2023-11-19T12:33:11;13.30;99.90
35258;DHT22;21385;50.878;8.050;2023-11-19T12:35:41;13.10;99.90
35258;DHT22;21385;50.878;8.050;2023-11-19T12:38:06;13.00;99.90
35258;DHT22;21385;50.878;8.050;2023-11-19T12:40:32;12.90;99.90
35258;DHT22;21385;50.878;8.050;2023-11-19T12:42:58;12.80;99.90
35258;DHT22;21385;50.878;8.050;2023-11-19T12:45:25;13.00;99.90
35258;DHT22;21385;50.878;8.050;2023-11-19T12:48:04;13.10;99.90
35258;DHT22;21385;50.878;8.050;2023-11-19T12:50:56;13.20;99.90
35258;DHT22;21385;50.878;8.050;2023-11-19T12:53:23;12.90;99.90
35258;DHT22;21385;50.878;8.050;2023-11-19T12:55:49;12.70;99.90
35258;DHT22;21385;50.878;8.050;2023-11-19T12:58:48;12.50;99.90
35258;DHT22;21385;50.878;8.050;2023-11-19T13:01:20;12.60;99.90
35258;DHT22;21385;50.878;8.050;2023-11-19T13:03:46;12.70;99.90
35258;DHT22;21385;50.878;8.050;2023-11-19T13:06:14;13.00;99.90
35258;DHT22;21385;50.878;8.050;2023-11-19T13:08:50;13.30;99.90
35258;DHT22;21385;50.878;8.050;2023-11-19T13:11:33;13.40;99.90
35258;DHT22;21385;50.878;8.050;2023-11-19T13:14:03;13.50;99.90
35258;DHT22;21385;50.878;8.050;2023-11-19T13:16:38;13.40;99.90
35258;DHT22;21385;50.878;8.050;2023-11-19T13:19:04;13.50;99.90
35258;DHT22;21385;50.878;8.050;2023-11-19T13:21:30;13.60;99.90
35258;DHT22;21385;50.878;8.050;2023-11-19T13:23:56;13.60;99.90
35258;DHT22;21385;50.878;8.050;2023-11-19T13:26:22;13.40;99.90
35258;DHT22;21385;50.878;8.050;2023-11-19T13:28:47;13.20;99.90
35258;DHT22;21385;50.878;8.050;2023-11-19T13:31:13;13.10;99.90
35258;DHT22;21385;50.878;8.050;2023-11-19T13:33:39;13.20;99.90
35258;DHT22;21385;50.878;8.050;2023-11-19T13:36:05;13.10;99.90
35258;DHT22;21385;50.878;8.050;2023-11-19T13:38:36;13.00;99.90
35258;DHT22;21385;50.878;8.050;2023-11-19T13:41:02;12.90;99.90
35258;DHT22;21385;50.878;8.050;2023-11-19T13:43:29;12.70;99.90
35258;DHT22;21385;50.878;8.050;2023-11-19T13:45:56;12.70;99.90
35258;DHT22;21385;50.878;8.050;2023-11-19T13:48:22;12.60;99.90
35258;DHT22;21385;50.878;8.050;2023-11-19T13:50:48;12.60;99.90
35258;DHT22;21385;50.878;8.050;2023-11-19T13:53:13;12.40;99.90
35258;DHT22;21385;50.878;8.050;2023-11-19T13:55:39;12.30;99.90
35258;DHT22;21385;50.878;8.050;2023-11-19T13:58:04;12.30;99.90
35258;DHT22;21385;50.878;8.050;2023-11-19T14:00:30;12.20;99.90
35258;DHT22;21385;50.878;8.050;2023-11-19T14:02:55;12.20;99.90
35258;DHT22;21385;50.878;8.050;2023-11-19T14:05:21;12.20;99.90
35258;DHT22;21385;50.878;8.050;2023-11-19T14:07:48;12.10;99.90
35258;DHT22;21385;50.878;8.050;2023-11-19T14:10:14;11.90;99.90
35258;DHT22;21385;50.878;8.050;2023-11-19T14:12:41;11.90;99.90
35258;DHT22;21385;50.878;8.050;2023-11-19T14:15:08;11.90;99.90
35258;DHT22;21385;50.878;8.050;2023-11-19T14:17:42;12.10;99.90
35258;DHT22;21385;50.878;8.050;2023-11-19T14:20:08;12.30;99.90
35258;DHT22;21385;50.878;8.050;2023-11-19T14:22:41;12.40;99.90
35258;DHT22;21385;50.878;8.050;2023-11-19T14:25:08;12.40;99.90
35258;DHT22;21385;50.878;8.050;2023-11-19T14:27:40;12.40;99.90
35258;DHT22;21385;50.878;8.050;2023-11-19T14:30:07;12.40;99.90
35258;DHT22;21385;50.878;8.050;2023-11-19T14:32:35;12.30;99.90
35258;DHT22;21385;50.878;8.050;2023-11-19T14:35:01;12.30;99.90
35258;DHT22;21385;50.878;8.050;2023-11-19T14:37:26;12.10;99.90
35258;DHT22;21385;50.878;8.050;2023-11-19T14:39:52;12.10;99.90
35258;DHT22;21385;50.878;8.050;2023-11-19T14:42:18;12.00;99.90
35258;DHT22;21385;50.878;8.050;2023-11-19T14:44:43;11.90;99.90
35258;DHT22;21385;50.878;8.050;2023-11-19T14:47:09;11.90;99.90
35258;DHT22;21385;50.878;8.050;2023-11-19T14:49:35;11.90;99.90
35258;DHT22;21385;50.878;8.050;2023-11-19T14:52:03;12.00;99.90
35258;DHT22;21385;50.878;8.050;2023-11-19T14:54:29;12.10;99.90
35258;DHT22;21385;50.878;8.050;2023-11-19T14:56:54;12.10;99.90
35258;DHT22;21385;50.878;8.050;2023-11-19T14:59:20;12.00;99.90
35258;DHT22;21385;50.878;8.050;2023-11-19T15:01:45;12.00;99.90
35258;DHT22;21385;50.878;8.050;2023-11-19T15:04:11;12.00;99.90
35258;DHT22;21385;50.878;8.050;2023-11-19T15:06:37;11.90;99.90
35258;DHT22;21385;50.878;8.050;2023-11-19T15:09:04;11.90;99.90
35258;DHT22;21385;50.878;8.050;2023-11-19T15:11:29;11.90;99.90
35258;DHT22;21385;50.878;8.050;2023-11-19T15:13:55;11.90;99.90
35258;DHT22;21385;50.878;8.050;2023-11-19T15:16:21;11.90;99.90
35258;DHT22;21385;50.878;8.050;2023-11-19T15:18:58;11.80;99.90
35258;DHT22;21385;50.878;8.050;2023-11-19T15:21:29;11.90;99.90
35258;DHT22;21385;50.878;8.050;2023-11-19T15:23:55;11.80;99.90
35258;DHT22;21385;50.878;8.050;2023-11-19T15:26:21;11.70;99.90
35258;DHT22;21385;50.878;8.050;2023-11-19T15:28:47;11.70;99.90
35258;DHT22;21385;50.878;8.050;2023-11-19T15:31:12;11.70;99.90
35258;DHT22;21385;50.878;8.050;2023-11-19T15:33:40;11.70;99.90
35258;DHT22;21385;50.878;8.050;2023-11-19T15:36:06;11.70;99.90
35258;DHT22;21385;50.878;8.050;2023-11-19T15:38:34;11.80;99.90
35258;DHT22;21385;50.878;8.050;2023-11-19T15:40:59;11.70;99.90
35258;DHT22;21385;50.878;8.050;2023-11-19T15:43:25;11.80;99.90
35258;DHT22;21385;50.878;8.050;2023-11-19T15:45:50;11.70;99.90
35258;DHT22;21385;50.878;8.050;2023-11-19T15:48:16;11.80;99.90
35258;DHT22;21385;50.878;8.050;2023-11-19T15:50:43;11.80;99.90
35258;DHT22;21385;50.878;8.050;2023-11-19T15:53:10;11.80;99.90
35258;DHT22;21385;50.878;8.050;2023-11-19T15:55:35;11.90;99.90